Meadow Lake, Alaska
Current Conditions -  °F | °C
As of 9:16 AM on Saturday 25 Oct 2014 (Local Time) from PAWS Reporting Station
Overcast Overcast  
Wind Chill: 28°   Ceiling: 5000
Heat Index: 28°   Visibility: 5mi
Dew Point: 21°   Wind: 0mph
Humidity: 74%   Direction: NA
Pressure: 29.87"   Gusts: NA
Location:  61.5841°N, 149.443°W
Report Text: PAWS 251716Z AUTO 00000KT 5SM OVC050 M02/M06 A2987 RMK AO1
Loading
Personal Weather Stations






























Interactive Weather Map
Tropical Storm Tracking
New forecast layout! Learn more

10-Day Weather Forecast

Advertisements
Track Severe Weather on mobile